Time;durP1;ratioP1;P1;durP2;ratioP2;P2;SDS_P1;SDS_P2;PMS_P1;PMS_P2;Temp;Humidity;BMP_temperature;BMP_pressure;BME280_temperature;BME280_humidity;BME280_pressure;Samples;Min_cycle;Max_cycle;Signal;HPM_P1;HPM_P2
2022/11/05 00:11:15;;;;;;;40.10;20.57;;;;;;;10.88;87.05;99622.63;1460856;88;22320;-84
2022/11/05 00:16:44;;;;;;;30.20;20.77;;;;;;;10.88;88.28;99618.65;1465174;87;21615;-84
2022/11/05 00:19:12;;;;;;;33.63;18.13;;;;;;;10.80;89.08;99610.22;1471225;88;21456;-84
2022/11/05 00:27:10;;;;;;;29.33;19.97;;;;;;;10.83;89.69;99611.20;1466652;88;22319;-83
2022/11/05 00:29:36;;;;;;;34.40;19.23;;;;;;;10.86;89.69;99606.07;1480356;88;21583;-84
2022/11/05 00:32:03;;;;;;;44.53;19.60;;;;;;;10.86;90.03;99606.07;1465269;88;21308;-84
2022/11/05 00:34:29;;;;;;;33.00;20.37;;;;;;;10.87;89.39;99603.74;1483355;87;22224;-85
2022/11/05 00:36:55;;;;;;;38.90;21.50;;;;;;;10.89;89.20;99605.73;1478189;88;21478;-84
2022/11/05 00:39:21;;;;;;;27.90;17.67;;;;;;;10.89;89.30;99616.32;1467113;87;21368;-83
2022/11/05 00:44:58;;;;;;;36.47;21.10;;;;;;;10.84;89.75;99605.73;1445977;89;21376;-81
2022/11/05 00:49:45;;;;;;;39.50;20.60;;;;;;;10.78;90.93;99602.94;1476070;87;22185;-81
2022/11/05 00:54:55;;;;;;;31.20;20.73;;;;;;;10.75;89.40;99608.06;1465066;87;21559;-82
2022/11/05 00:57:21;;;;;;;33.37;19.53;;;;;;;10.75;89.96;99613.36;1481715;87;21411;-83
2022/11/05 00:59:47;;;;;;;30.80;20.03;;;;;;;10.76;90.40;99605.77;1492556;87;22356;-83
2022/11/05 01:02:13;;;;;;;30.43;19.47;;;;;;;10.77;89.86;99603.44;1484542;87;22227;-82
2022/11/05 01:04:39;;;;;;;27.50;19.17;;;;;;;10.80;91.35;99610.22;1472973;88;21574;-82
2022/11/05 01:07:05;;;;;;;30.47;19.03;;;;;;;10.80;91.19;99612.36;1458898;88;21433;-82
2022/11/05 01:09:32;;;;;;;24.70;17.77;;;;;;;10.84;90.89;99611.02;1466176;88;21618;-84
2022/11/05 01:11:58;;;;;;;36.50;21.00;;;;;;;10.86;91.06;99607.40;1467060;88;21485;-84
2022/11/05 01:14:24;;;;;;;36.80;18.77;;;;;;;10.86;91.18;99606.07;1473522;88;21516;-82
2022/11/05 01:16:50;;;;;;;31.33;20.87;;;;;;;10.83;90.84;99606.73;1476073;88;22556;-83
2022/11/05 01:19:16;;;;;;;30.37;19.03;;;;;;;10.75;91.06;99604.09;1456199;88;21485;-84
2022/11/05 01:21:42;;;;;;;32.77;19.60;;;;;;;10.73;93.85;99616.70;1464165;88;21429;-83
2022/11/05 01:24:10;;;;;;;32.53;19.77;;;;;;;10.70;93.82;99613.03;1455890;88;22461;-83
2022/11/05 01:26:36;;;;;;;30.10;18.37;;;;;;;10.68;93.85;99617.69;1467457;88;21528;-83
2022/11/05 01:29:02;;;;;;;39.53;18.63;;;;;;;10.69;93.76;99616.69;1470256;88;21429;-83
2022/11/05 01:31:28;;;;;;;30.57;19.80;;;;;;;10.71;93.71;99612.56;1455840;88;21662;-84
2022/11/05 01:33:55;;;;;;;27.87;19.13;;;;;;;10.70;94.22;99611.70;1462987;88;21627;-83
2022/11/05 01:36:21;;;;;;;35.10;21.43;;;;;;;10.72;94.51;99608.41;1485687;88;21456;-84
2022/11/05 01:38:47;;;;;;;31.00;20.13;;;;;;;10.68;94.74;99604.45;1482115;87;21470;-84
2022/11/05 01:41:13;;;;;;;24.63;18.00;;;;;;;10.69;94.80;99608.75;1482135;87;21426;-83
2022/11/05 01:43:50;;;;;;;30.90;19.37;;;;;;;10.68;95.34;99592.55;1480861;87;21554;-81
2022/11/05 01:46:21;;;;;;;32.73;20.33;;;;;;;10.69;94.80;99597.34;1491145;87;21433;-84
2022/11/05 01:48:50;;;;;;;32.53;18.53;;;;;;;10.71;94.98;99601.47;1477856;87;21477;-83
2022/11/05 01:51:21;;;;;;;27.87;18.80;;;;;;;10.71;95.31;99598.83;1491215;86;21629;-82
2022/11/05 01:54:02;;;;;;;32.90;19.97;;;;;;;10.74;94.97;99597.16;1453096;88;21493;-82
2022/11/05 01:56:37;;;;;;;29.60;19.60;;;;;;;10.79;94.66;99601.97;1457844;88;21434;-81
2022/11/05 01:59:08;;;;;;;34.10;20.83;;;;;;;10.78;94.88;99606.91;1473585;88;21397;-80
2022/11/05 02:01:34;;;;;;;;;;;;;;;10.76;94.43;99604.45;1480385;87;21433;-81
2022/11/05 02:04:08;;;;;;;34.10;20.87;;;;;;;10.75;95.30;99609.39;1474925;87;20357;-82
2022/11/05 02:06:38;;;;;;;34.00;21.47;;;;;;;10.73;94.79;99607.43;1465335;87;21495;-82
2022/11/05 02:09:09;;;;;;;38.67;21.15;;;;;;;10.74;94.55;99618.34;1467284;87;21500;-81
2022/11/05 02:11:36;;;;;;;28.13;19.80;;;;;;;10.74;94.35;99623.62;1490685;87;21375;-81
2022/11/05 02:14:03;;;;;;;29.93;20.10;;;;;;;10.75;94.24;99623.95;1474953;88;22420;-82
2022/11/05 02:16:51;;;;;;;28.43;19.13;;;;;;;10.76;94.38;99628.73;1462445;88;21552;-79
2022/11/05 02:19:58;;;;;;;31.13;19.73;;;;;;;10.73;95.42;99615.84;1474234;87;21847;-81
2022/11/05 02:22:42;;;;;;;37.00;20.10;;;;;;;10.71;96.03;99624.47;1474721;87;21447;-84
2022/11/05 02:25:41;;;;;;;40.37;21.03;;;;;;;10.76;95.46;99621.65;1498475;86;21433;-81
2022/11/05 02:28:29;;;;;;;30.50;19.30;;;;;;;10.77;96.06;99618.50;1464208;87;22417;-82
2022/11/05 02:31:09;;;;;;;30.67;20.20;;;;;;;10.77;96.64;99612.70;1474572;87;21397;-83
2022/11/05 02:33:59;;;;;;;34.40;21.33;;;;;;;10.78;95.74;99619.64;1487383;87;21478;-83
2022/11/05 02:36:51;;;;;;;28.43;19.50;;;;;;;10.79;95.32;99618.66;1492903;87;21447;-81
2022/11/05 02:39:52;;;;;;;32.10;19.57;;;;;;;10.80;95.48;99620.30;1479083;87;21657;-80
2022/11/05 02:42:45;;;;;;;29.98;20.12;;;;;;;10.78;96.58;99615.67;1469693;88;21500;-80
2022/11/05 02:45:39;;;;;;;28.33;18.73;;;;;;;10.80;96.36;99612.36;1467222;89;21353;-80
2022/11/05 02:48:43;;;;;;;31.50;19.37;;;;;;;10.83;96.32;99599.30;1471146;87;21421;-80
2022/11/05 02:51:21;;;;;;;30.83;19.07;;;;;;;10.82;96.47;99595.00;1483244;87;21551;-81
2022/11/05 02:54:02;;;;;;;34.40;20.90;;;;;;;10.79;96.46;99592.20;1473170;87;22534;-82
2022/11/05 02:56:32;;;;;;;35.68;20.80;;;;;;;10.79;97.33;99595.34;1454689;89;21481;-81
2022/11/05 02:58:58;;;;;;;29.67;20.50;;;;;;;10.76;97.52;99587.72;1461231;88;21510;-81
2022/11/05 03:01:25;;;;;;;36.30;21.83;;;;;;;10.75;97.34;99580.78;1448935;88;21486;-82
2022/11/05 03:03:56;;;;;;;30.67;18.73;;;;;;;10.77;97.18;99584.91;1450260;88;21463;-82
2022/11/05 03:07:16;;;;;;;27.60;19.87;;;;;;;10.79;97.74;99574.17;1464289;88;21480;-81
2022/11/05 03:10:17;;;;;;;33.20;19.87;;;;;;;10.80;97.77;99577.13;1460104;88;22470;-80
2022/11/05 03:13:35;;;;;;;32.53;18.75;;;;;;;10.81;97.26;99569.51;1458293;88;21773;-81
2022/11/05 03:16:06;;;;;;;27.80;18.03;;;;;;;10.79;97.45;99562.27;1454099;89;22268;-81
2022/11/05 03:18:55;;;;;;;35.17;21.87;;;;;;;10.70;97.52;99560.10;1469645;89;21455;-80
2022/11/05 03:21:48;;;;;;;26.83;18.37;;;;;;;10.66;98.31;99558.80;1488373;87;21421;-80
2022/11/05 03:24:28;;;;;;;31.50;18.00;;;;;;;10.63;99.02;99561.79;1457767;89;21878;-81
2022/11/05 03:27:05;;;;;;;34.85;21.15;;;;;;;10.64;98.44;99564.75;1458475;89;21625;-81
2022/11/05 03:29:40;;;;;;;28.47;19.03;;;;;;;10.66;98.80;99569.39;1491319;86;21796;-81
2022/11/05 03:32:08;;;;;;;28.87;19.23;;;;;;;10.70;98.26;99569.36;1490869;86;21635;-81
2022/11/05 03:34:39;;;;;;;36.03;18.80;;;;;;;10.73;98.11;99570.85;1476538;86;21449;-81
2022/11/05 03:37:07;;;;;;;30.70;18.87;;;;;;;10.75;98.26;99576.30;1485366;87;21384;-81
2022/11/05 03:39:38;;;;;;;33.03;20.03;;;;;;;10.79;97.52;99575.50;1488840;87;22447;-81
2022/11/05 03:42:08;;;;;;;32.17;21.10;;;;;;;10.80;96.99;99577.95;1457419;87;21472;-80
2022/11/05 03:44:38;;;;;;;31.55;21.62;;;;;;;10.83;97.09;99583.41;1466266;89;21551;-81
2022/11/05 03:47:09;;;;;;;33.10;20.93;;;;;;;10.84;96.99;99581.91;1474713;87;22452;-81
2022/11/05 03:49:40;;;;;;;31.53;20.67;;;;;;;10.86;96.70;99585.72;1452304;89;22269;-81
2022/11/05 03:52:12;;;;;;;29.27;18.45;;;;;;;10.89;96.65;99599.11;1480784;87;21494;-84
2022/11/05 03:54:38;;;;;;;26.40;18.20;;;;;;;10.94;96.51;99607.38;1480622;87;21441;-82
2022/11/05 03:57:25;;;;;;;37.23;19.80;;;;;;;10.97;96.38;99616.30;1500724;86;22463;-81
2022/11/05 03:59:51;;;;;;;31.30;18.93;;;;;;;11.02;96.21;99612.66;1477100;87;21406;-80
2022/11/05 04:02:21;;;;;;;36.70;21.00;;;;;;;11.04;96.23;99617.27;1484187;87;21403;-81
2022/11/05 04:04:47;;;;;;;31.80;19.25;;;;;;;11.03;95.84;99622.23;1489946;87;21463;-81
2022/11/05 04:15:28;;;;;;;26.60;18.17;;;;;;;10.92;97.04;99598.27;1489559;86;21606;-82
2022/11/05 04:17:57;;;;;;;26.63;17.43;;;;;;;10.88;97.30;99589.53;1481227;86;21344;-82
2022/11/05 04:25:54;;;;;;;32.87;21.33;;;;;;;10.76;98.13;99574.01;1453827;89;21449;-81
2022/11/05 04:30:17;;;;;;;30.50;21.33;;;;;;;10.78;97.58;99587.88;1455629;89;21345;-81
2022/11/05 04:30:48;;;;;;;33.90;19.87;;;;;;;10.78;98.42;99591.84;1427279;90;21434;-81
2022/11/05 04:33:16;;;;;;;30.87;19.80;;;;;;;10.81;97.61;99597.30;1467331;87;21426;-81
2022/11/05 04:35:48;;;;;;;27.00;19.13;;;;;;;10.86;97.53;99608.72;1472091;88;21463;-81
2022/11/05 04:38:17;;;;;;;35.13;18.60;;;;;;;10.89;97.70;99608.38;1468316;88;21338;-82
2022/11/05 04:40:45;;;;;;;26.50;19.37;;;;;;;10.92;98.59;99613.33;1488060;87;21441;-82
2022/11/05 04:43:16;;;;;;;31.23;19.00;;;;;;;10.92;97.83;99621.27;1473380;87;21300;-83
2022/11/05 04:45:42;;;;;;;29.35;18.05;;;;;;;10.96;97.49;99622.58;1477907;88;22284;-81
2022/11/05 04:48:09;;;;;;;33.73;20.17;;;;;;;10.97;97.43;99625.57;1477266;88;21419;-82
2022/11/05 04:50:36;;;;;;;33.17;21.97;;;;;;;11.01;97.20;99636.14;1483902;88;21529;-82
2022/11/05 04:53:02;;;;;;;31.63;20.20;;;;;;;11.01;97.51;99636.14;1476722;88;21440;-81
2022/11/05 04:55:29;;;;;;;47.53;20.37;;;;;;;10.97;98.41;99622.92;1471655;87;22305;-82
2022/11/05 04:57:55;;;;;;;26.57;17.27;;;;;;;10.97;97.88;99629.55;1473510;87;21419;-82
2022/11/05 05:00:23;;;;;;;33.50;19.63;;;;;;;10.99;97.79;99638.97;1478489;88;21449;-82
2022/11/05 05:02:49;;;;;;;29.67;18.23;;;;;;;11.00;97.57;99642.44;1478952;88;21389;-83
2022/11/05 05:05:16;;;;;;;30.47;18.47;;;;;;;11.00;97.71;99645.09;1480867;88;21396;-82
2022/11/05 05:07:42;;;;;;;28.53;18.70;;;;;;;10.97;99.63;99646.25;1479426;88;21474;-83
2022/11/05 05:10:10;;;;;;;29.37;19.57;;;;;;;10.95;98.31;99644.77;1485331;87;21935;-83
2022/11/05 05:12:36;;;;;;;26.43;18.03;;;;;;;10.97;98.23;99642.78;1469305;88;21458;-79
2022/11/05 05:15:03;;;;;;;31.53;19.27;;;;;;;11.00;98.53;99649.06;1474017;87;22284;-79
2022/11/05 05:17:29;;;;;;;27.27;20.03;;;;;;;11.04;98.20;99647.72;1479669;88;21618;-80
2022/11/05 05:22:23;;;;;;;30.27;20.23;;;;;;;11.07;98.24;99648.19;1436771;87;21662;-79
2022/11/05 05:24:50;;;;;;;31.27;20.20;;;;;;;11.01;98.76;99652.84;1471324;87;21360;-80
2022/11/05 05:27:16;;;;;;;30.67;19.57;;;;;;;11.00;98.80;99659.66;1470659;87;22181;-80
2022/11/05 05:29:42;;;;;;;27.83;19.93;;;;;;;10.96;99.08;99649.91;1477309;88;22000;-80
2022/11/05 05:32:09;;;;;;;30.00;18.63;;;;;;;10.93;99.17;99652.86;1486105;88;21441;-80
2022/11/05 05:34:35;;;;;;;30.83;18.23;;;;;;;10.89;99.70;99666.12;1494727;87;22203;-79
2022/11/05 05:37:01;;;;;;;33.33;19.47;;;;;;;10.90;99.60;99676.20;1460521;87;21484;-80
2022/11/05 05:39:27;;;;;;;34.70;20.50;;;;;;;10.92;99.75;99678.19;1461523;87;21353;-79
2022/11/05 05:41:53;;;;;;;36.60;21.83;;;;;;;10.95;99.78;99689.77;1474274;87;21381;-80
2022/11/05 05:44:20;;;;;;;31.93;21.40;;;;;;;10.96;100.00;99690.09;1466239;87;21419;-79
2022/11/05 05:46:46;;;;;;;33.77;20.93;;;;;;;10.97;99.74;99689.94;1477293;87;22292;-80
2022/11/05 05:49:13;;;;;;;30.00;20.50;;;;;;;10.99;99.68;99699.02;1462138;88;21406;-79
2022/11/05 05:51:39;;;;;;;31.30;21.67;;;;;;;10.99;99.84;99704.31;1485347;87;22291;-78
2022/11/05 05:54:05;;;;;;;30.93;19.30;;;;;;;10.96;100.00;99704.66;1477528;87;21433;-78
2022/11/05 05:56:31;;;;;;;29.63;18.30;;;;;;;10.96;100.00;99707.30;1465881;88;21440;-78
2022/11/05 05:58:57;;;;;;;31.40;20.93;;;;;;;10.95;100.00;99700.36;1461822;89;21455;-78
2022/11/05 06:01:23;;;;;;;31.87;21.10;;;;;;;10.94;100.00;99707.98;1461129;89;21703;-77
2022/11/05 06:03:49;;;;;;;28.73;20.33;;;;;;;10.92;100.00;99705.48;1467313;87;21405;-79
2022/11/05 06:06:20;;;;;;;32.30;20.50;;;;;;;10.90;100.00;99706.14;1472006;88;21507;-81
2022/11/05 06:08:46;;;;;;;;;;;;;;;10.88;100.00;99711.30;1475036;88;21491;-79
2022/11/05 06:11:13;;;;;;;36.17;20.60;;;;;;;10.83;100.00;99715.77;1477849;87;20245;-79
2022/11/05 06:13:39;;;;;;;28.87;18.90;;;;;;;10.77;100.00;99713.28;1475084;87;23297;-78
2022/11/05 06:16:08;;;;;;;30.63;20.53;;;;;;;10.75;100.00;99723.20;1470755;87;21308;-80
2022/11/05 06:18:35;;;;;;;26.47;18.00;;;;;;;10.78;100.00;99726.02;1475316;88;22283;-78
2022/11/05 06:21:03;;;;;;;28.37;18.60;;;;;;;10.74;100.00;99726.84;1472432;88;21456;-77
2022/11/05 06:23:31;;;;;;;29.53;20.20;;;;;;;10.74;100.00;99730.82;1484492;87;21502;-79
2022/11/05 06:26:07;;;;;;;30.00;20.33;;;;;;;10.77;100.00;99735.78;1478538;87;21381;-78
2022/11/05 06:28:34;;;;;;;38.37;25.00;;;;;;;10.80;100.00;99742.56;1472619;88;21412;-78
2022/11/05 06:31:00;;;;;;;26.97;20.30;;;;;;;10.80;100.00;99742.56;1481516;88;21406;-78
2022/11/05 06:33:27;;;;;;;34.50;21.00;;;;;;;10.81;100.00;99742.38;1469555;88;22828;-78
2022/11/05 06:35:54;;;;;;;32.37;21.37;;;;;;;10.83;100.00;99743.05;1472546;88;21478;-79
2022/11/05 06:38:20;;;;;;;38.37;21.57;;;;;;;10.86;100.00;99741.08;1472105;88;21448;-77
2022/11/05 06:40:46;;;;;;;32.57;21.50;;;;;;;10.88;100.00;99743.89;1474113;88;21464;-77
2022/11/05 06:43:12;;;;;;;35.53;20.77;;;;;;;10.91;100.00;99737.44;1473275;88;21521;-77
2022/11/05 06:45:38;;;;;;;39.10;21.67;;;;;;;10.96;100.00;99734.63;1466580;88;22335;-77
2022/11/05 06:48:05;;;;;;;36.60;24.67;;;;;;;10.99;100.00;99726.81;1475584;88;21360;-76
2022/11/05 06:50:31;;;;;;;48.50;26.63;;;;;;;10.99;100.00;99739.59;1471228;88;21518;-76
2022/11/05 06:53:01;;;;;;;45.13;30.43;;;;;;;11.02;100.00;99745.05;1475272;88;23433;-77
2022/11/05 06:55:29;;;;;;;49.00;26.60;;;;;;;10.99;100.00;99734.30;1477983;88;21639;-76
2022/11/05 06:57:56;;;;;;;43.00;25.23;;;;;;;11.00;100.00;99729.81;1469979;88;21455;-76
2022/11/05 07:00:23;;;;;;;42.33;28.10;;;;;;;11.04;100.00;99732.45;1477490;88;21507;-76
2022/11/05 07:02:49;;;;;;;39.53;23.67;;;;;;;11.05;100.00;99734.94;1475455;88;21411;-76
2022/11/05 07:05:16;;;;;;;40.23;26.60;;;;;;;11.10;100.00;99743.69;1472073;88;22358;-77
2022/11/05 07:07:44;;;;;;;38.33;23.13;;;;;;;11.11;100.00;99740.06;1469933;88;21692;-76
2022/11/05 07:10:14;;;;;;;37.33;21.23;;;;;;;11.14;100.00;99741.05;1476139;88;21626;-76
2022/11/05 07:12:40;;;;;;;33.83;22.48;;;;;;;11.13;100.00;99738.05;1470271;88;21448;-76
2022/11/05 07:15:09;;;;;;;31.57;21.30;;;;;;;11.13;100.00;99742.03;1477192;88;22104;-77
2022/11/05 07:17:35;;;;;;;26.80;18.30;;;;;;;11.15;100.00;99744.52;1474206;88;21994;-77
2022/11/05 07:20:03;;;;;;;34.40;20.60;;;;;;;11.15;100.00;99746.67;1436580;88;22493;-76
2022/11/05 07:22:29;;;;;;;28.83;19.20;;;;;;;11.15;100.00;99751.97;1430561;90;21427;-79
2022/11/05 07:24:55;;;;;;;30.77;20.07;;;;;;;11.15;100.00;99757.27;1418667;92;21567;-87
2022/11/05 07:27:22;;;;;;;35.07;19.93;;;;;;;11.18;100.00;99752.95;1404384;92;21507;-88
2022/11/05 07:29:48;;;;;;;34.63;19.73;;;;;;;11.18;100.00;99758.25;1426487;92;21679;-89
2022/11/05 07:32:14;;;;;;;32.00;19.80;;;;;;;11.17;100.00;99757.93;1424481;92;21544;-88
2022/11/05 07:34:41;;;;;;;41.23;22.03;;;;;;;11.13;100.00;99759.24;1425947;92;21471;-88
2022/11/05 07:37:07;;;;;;;45.57;20.60;;;;;;;11.13;100.00;99767.19;1420243;92;22388;-89
2022/11/05 07:39:33;;;;;;;32.63;19.03;;;;;;;11.11;100.00;99759.93;1424070;92;21501;-87
2022/11/05 07:41:59;;;;;;;34.73;20.00;;;;;;;11.13;100.00;99763.22;1421114;92;21493;-88
2022/11/05 07:44:25;;;;;;;27.47;18.00;;;;;;;11.16;100.00;99760.73;1403692;92;21389;-82
2022/11/05 07:46:51;;;;;;;28.80;17.60;;;;;;;11.21;100.00;99759.73;1421511;92;21477;-80
2022/11/05 07:49:17;;;;;;;25.83;16.97;;;;;;;11.22;100.00;99758.27;1424600;92;22285;-80
2022/11/05 07:51:44;;;;;;;31.90;19.63;;;;;;;11.26;100.00;99758.74;1418790;92;21509;-80
2022/11/05 07:54:10;;;;;;;37.57;22.30;;;;;;;11.27;100.00;99755.91;1418221;92;21418;-80
2022/11/05 07:56:36;;;;;;;30.07;19.47;;;;;;;11.31;100.00;99757.75;1422393;92;21419;-80
2022/11/05 07:59:02;;;;;;;34.63;22.20;;;;;;;11.34;100.00;99758.73;1442232;90;22235;-80
2022/11/05 08:01:28;;;;;;;30.20;20.03;;;;;;;11.39;100.00;99755.56;1440012;90;21574;-80
2022/11/05 08:03:54;;;;;;;27.50;19.03;;;;;;;11.42;100.00;99749.92;1450360;90;21972;-78
2022/11/05 08:06:20;;;;;;;28.77;17.33;;;;;;;11.44;100.00;99753.23;1442284;90;21419;-80
2022/11/05 08:08:46;;;;;;;35.87;21.57;;;;;;;11.45;100.00;99751.76;1449213;90;21426;-80
2022/11/05 08:11:13;;;;;;;43.63;26.77;;;;;;;11.48;100.00;99747.94;1447331;90;22366;-79
2022/11/05 08:13:39;;;;;;;66.27;36.47;;;;;;;11.53;100.00;99749.56;1451549;90;21501;-80
2022/11/05 08:16:06;;;;;;;61.30;34.50;;;;;;;11.56;100.00;99745.75;1439197;90;21493;-79
2022/11/05 08:18:32;;;;;;;37.70;22.97;;;;;;;11.58;100.00;99744.58;1449720;90;22387;-79
2022/11/05 08:21:02;;;;;;;30.57;22.07;;;;;;;11.59;100.00;99740.92;1442312;90;22772;-79
2022/11/05 08:23:30;;;;;;;34.23;21.03;;;;;;;11.58;100.00;99749.89;1446659;90;21470;-79
2022/11/05 08:25:57;;;;;;;29.43;19.13;;;;;;;11.60;100.00;99753.20;1448562;90;21440;-80
2022/11/05 08:28:30;;;;;;;31.93;20.43;;;;;;;11.65;100.00;99750.02;1435962;90;22023;-79
2022/11/05 08:30:57;;;;;;;31.73;19.30;;;;;;;11.66;100.00;99753.84;1445946;90;21546;-81
2022/11/05 08:33:24;;;;;;;32.17;19.13;;;;;;;11.67;100.00;99761.28;1453047;90;21597;-80
2022/11/05 08:35:51;;;;;;;30.67;20.23;;;;;;;11.69;100.00;99757.47;1450516;90;21493;-79
2022/11/05 08:38:18;;;;;;;27.23;19.77;;;;;;;11.69;100.00;99754.00;1441119;90;21427;-80
2022/11/05 08:40:56;;;;;;;29.70;17.70;;;;;;;11.68;100.00;99747.88;1447451;90;21559;-79
2022/11/05 08:43:22;;;;;;;49.97;21.70;;;;;;;11.71;100.00;99750.19;1439192;90;22270;-84
2022/11/05 08:45:49;;;;;;;28.90;17.60;;;;;;;11.77;100.00;99751.80;1448101;90;21448;-80
2022/11/05 08:48:17;;;;;;;27.77;18.50;;;;;;;11.81;100.00;99749.97;1446909;90;21360;-80
2022/11/05 08:50:46;;;;;;;29.60;19.10;;;;;;;11.84;100.00;99745.64;1443662;90;21433;-80
2022/11/05 08:53:13;;;;;;;24.27;17.47;;;;;;;11.91;100.00;99751.11;1446333;90;21463;-80
2022/11/05 08:55:40;;;;;;;25.80;17.80;;;;;;;11.95;100.00;99759.06;1447527;90;21507;-80
2022/11/05 08:58:16;;;;;;;32.47;17.47;;;;;;;11.99;100.00;99760.36;1450698;90;21501;-80
2022/11/05 09:00:47;;;;;;;27.87;19.07;;;;;;;12.04;100.00;99762.50;1441817;90;21361;-80
2022/11/05 09:03:13;;;;;;;;;;;;;;;12.05;100.00;99770.27;1432563;90;21459;-80
2022/11/05 09:05:41;;;;;;;30.10;21.67;;;;;;;12.03;100.00;99765.66;1400161;91;20355;-80
2022/11/05 09:08:11;;;;;;;33.37;19.03;;;;;;;12.04;100.00;99764.65;1420847;91;21517;-80
2022/11/05 09:10:38;;;;;;;28.43;18.73;;;;;;;12.07;100.00;99768.28;1420726;91;22302;-80
2022/11/05 09:13:05;;;;;;;28.17;18.03;;;;;;;12.12;100.00;99770.42;1419459;90;22317;-80
2022/11/05 09:15:34;;;;;;;35.23;19.57;;;;;;;12.16;100.00;99772.53;1422780;92;21473;-80
2022/11/05 09:18:02;;;;;;;28.07;18.37;;;;;;;12.23;100.00;99770.03;1420843;92;21503;-80
2022/11/05 09:41:30;;;;;;;31.97;19.40;;;;;;;13.16;100.00;99758.89;1493935;84;23767;-80
2022/11/05 09:59:38;;;;;;;31.17;20.90;;;;;;;13.98;100.00;99778.30;1507918;85;22604;-80
2022/11/05 10:02:29;;;;;;;27.33;18.80;;;;;;;13.83;100.00;99774.80;1491719;87;21485;-80
2022/11/05 10:05:00;;;;;;;34.53;21.93;;;;;;;13.81;100.00;99772.86;1475221;87;21411;-81
2022/11/05 10:07:30;;;;;;;26.70;18.50;;;;;;;13.82;100.00;99766.52;1458483;87;21554;-87
2022/11/05 10:10:06;;;;;;;35.33;21.63;;;;;;;13.83;100.00;99765.50;1474282;87;22180;-92
2022/11/05 10:12:53;;;;;;;27.63;19.37;;;;;;;13.88;100.00;99768.44;1476843;87;22141;-95
2022/11/05 10:15:23;;;;;;;26.70;17.60;;;;;;;13.87;100.00;99765.98;1480329;87;21397;-91
2022/11/05 10:17:56;;;;;;;;;;;;;;;13.95;100.00;99770.69;1453339;89;21493;-95
2022/11/05 10:20:35;;;;;;;35.67;19.80;;;;;;;13.95;100.00;99773.83;1467429;88;20283;-90
2022/11/05 10:23:13;;;;;;;25.17;17.50;;;;;;;13.95;100.00;99777.34;1466944;88;21455;-93
2022/11/05 10:25:57;;;;;;;32.27;20.73;;;;;;;13.89;100.00;99782.05;1468750;87;21338;-92
2022/11/05 10:28:27;;;;;;;25.57;18.23;;;;;;;13.84;100.00;99789.77;1456937;89;21573;-91
2022/11/05 10:31:02;;;;;;;;;;;;;;;13.81;100.00;99789.30;1465492;89;22305;-92
2022/11/05 10:33:45;;;;;;;32.43;21.10;;;;;;;13.76;100.00;99791.19;1479358;88;20282;-91
2022/11/05 10:36:20;;;;;;;27.73;19.97;;;;;;;13.74;100.00;99790.03;1469607;87;21359;-90
2022/11/05 10:38:46;;;;;;;26.03;20.13;;;;;;;13.74;100.00;99789.22;1476357;87;21566;-89
2022/11/05 10:41:54;;;;;;;28.67;19.63;;;;;;;13.74;100.00;99794.53;1482542;87;21537;-91
2022/11/05 10:44:40;;;;;;;25.90;18.00;;;;;;;13.75;100.00;99792.18;1461999;87;22210;-90
2022/11/05 10:47:20;;;;;;;30.87;19.67;;;;;;;13.74;100.00;99795.86;1489048;87;21411;-83
2022/11/05 10:50:00;;;;;;;35.63;22.73;;;;;;;13.70;100.00;99787.94;1468073;88;22439;-90
2022/11/05 10:52:34;;;;;;;62.47;32.63;;;;;;;13.69;100.00;99784.94;1468219;88;21360;-90
2022/11/05 10:55:05;;;;;;;71.77;35.03;;;;;;;13.69;100.00;99784.94;1471086;87;21956;-89
2022/11/05 10:57:39;;;;;;;54.60;28.40;;;;;;;13.67;100.00;99786.98;1464710;87;21566;-90
2022/11/05 11:00:21;;;;;;;44.00;24.83;;;;;;;13.66;100.00;99788.79;1455254;87;21383;-91
2022/11/05 11:02:58;;;;;;;51.97;28.97;;;;;;;13.66;100.00;99785.31;1458002;87;21382;-86
2022/11/05 11:05:35;;;;;;;54.30;30.50;;;;;;;13.66;100.00;99785.31;1471415;87;21519;-91
2022/11/05 11:08:16;;;;;;;45.47;26.93;;;;;;;13.66;100.00;99789.30;1466325;87;22379;-91
2022/11/05 11:10:52;;;;;;;47.17;23.98;;;;;;;13.67;100.00;99786.98;1473583;88;21397;-92
2022/11/05 11:13:23;;;;;;;38.27;23.03;;;;;;;13.69;100.00;99795.06;1484735;88;21382;-91
2022/11/05 11:15:50;;;;;;;34.87;21.20;;;;;;;13.74;100.00;99803.84;1458447;88;21456;-91
2022/11/05 11:18:29;;;;;;;29.60;19.37;;;;;;;13.79;100.00;99808.11;1454039;88;21464;-92
2022/11/05 11:21:15;;;;;;;29.73;20.03;;;;;;;13.84;100.00;99807.06;1464128;88;21568;-89
2022/11/05 11:23:44;;;;;;;35.77;21.03;;;;;;;13.85;100.00;99807.38;1472706;88;22550;-92
2022/11/05 11:26:12;;;;;;;31.17;23.17;;;;;;;13.90;100.00;99806.84;1470392;87;21718;-90
2022/11/05 11:28:48;;;;;;;28.43;19.27;;;;;;;13.92;100.00;99808.27;1481483;87;21384;-90
2022/11/05 11:31:24;;;;;;;30.70;21.43;;;;;;;14.02;100.00;99804.02;1474468;88;22784;-90
2022/11/05 11:34:07;;;;;;;32.03;21.90;;;;;;;14.10;100.00;99800.44;1428854;91;22360;-90
2022/11/05 11:36:44;;;;;;;34.80;21.80;;;;;;;14.20;100.00;99795.64;1428220;91;21481;-91
2022/11/05 11:39:19;;;;;;;30.43;19.37;;;;;;;14.27;100.00;99799.22;1422853;91;21620;-93
2022/11/05 11:41:59;;;;;;;26.07;18.03;;;;;;;14.30;100.00;99802.84;1429966;91;21414;-91
2022/11/05 11:44:33;;;;;;;28.00;17.57;;;;;;;14.35;100.00;99797.75;1454109;89;21429;-93
2022/11/05 11:47:10;;;;;;;31.60;17.60;;;;;;;14.35;100.00;99801.74;1441282;89;21562;-89
2022/11/05 11:49:45;;;;;;;28.50;17.60;;;;;;;14.35;100.00;99799.08;1449267;89;21400;-89
2022/11/05 11:52:28;;;;;;;33.30;19.90;;;;;;;14.36;100.00;99799.42;1452381;89;21539;-88
2022/11/05 11:55:16;;;;;;;28.97;17.87;;;;;;;14.40;100.00;99801.20;1441849;89;21400;-88
2022/11/05 11:57:50;;;;;;;26.73;16.50;;;;;;;14.48;100.00;99804.26;1444968;89;21575;-85
2022/11/05 12:00:19;;;;;;;32.37;24.67;;;;;;;14.52;100.00;99805.55;1421786;91;21570;-86
2022/11/05 12:03:17;;;;;;;32.17;20.73;;;;;;;14.54;100.00;99808.86;1448312;89;22291;-86
2022/11/05 12:06:07;;;;;;;52.80;34.73;;;;;;;14.52;100.00;99809.03;1444018;89;22825;-86
2022/11/05 12:09:30;;;;;;;31.13;21.57;;;;;;;14.44;100.00;99819.28;1426246;89;21450;-85
2022/11/05 12:12:15;;;;;;;26.10;16.93;;;;;;;14.43;100.00;99820.27;1443726;89;21640;-86
2022/11/05 12:15:04;;;;;;;24.27;15.73;;;;;;;14.45;100.00;99820.09;1454649;89;21487;-84
2022/11/05 12:17:58;;;;;;;29.70;16.83;;;;;;;14.44;100.00;99816.62;1442326;89;22448;-85
2022/11/05 12:21:04;;;;;;;23.20;16.90;;;;;;;14.48;100.00;99819.72;1444744;89;22165;-83
2022/11/05 12:23:59;;;;;;;22.03;16.67;;;;;;;14.49;100.00;99831.19;1448494;89;21375;-84
2022/11/05 12:26:34;;;;;;;29.43;17.80;;;;;;;14.48;100.00;99833.03;1439555;89;21480;-84
2022/11/05 12:29:18;;;;;;;23.57;14.87;;;;;;;14.47;100.00;99829.22;1435301;89;21642;-85
2022/11/05 12:32:05;;;;;;;27.93;16.60;;;;;;;14.49;100.00;99836.00;1436804;89;21391;-83
2022/11/05 12:34:42;;;;;;;19.67;13.93;;;;;;;14.47;100.00;99830.55;1448482;89;21375;-83
2022/11/05 12:37:46;;;;;;;30.80;15.20;;;;;;;14.44;100.00;99831.74;1428679;89;22011;-84
2022/11/05 12:40:38;;;;;;;31.43;16.90;;;;;;;14.44;100.00;99827.27;1433667;89;21451;-86
2022/11/05 12:43:12;;;;;;;30.10;18.10;;;;;;;14.44;100.00;99829.93;1438036;89;21559;-85
2022/11/05 12:45:56;;;;;;;26.70;17.97;;;;;;;14.44;100.00;99825.09;1441057;89;21422;-86
2022/11/05 12:48:46;;;;;;;33.47;23.47;;;;;;;14.41;100.00;99826.31;1448095;89;21539;-86
2022/11/05 12:51:50;;;;;;;37.10;20.55;;;;;;;14.40;100.00;99823.31;1443921;89;21487;-85
2022/11/05 12:58:18;;;;;;;38.07;24.40;;;;;;;14.36;100.00;99827.38;1427596;88;22360;-85
2022/11/05 13:00:52;;;;;;;28.77;18.90;;;;;;;14.34;100.00;99828.05;1459384;88;21538;-88
2022/11/05 13:03:39;;;;;;;35.17;19.57;;;;;;;14.34;100.00;99837.38;1460281;88;22226;-86